createdAt,value
2023-02-14T00:02:37.786Z,132.82
2023-02-14T00:05:23.861Z,113.05
2023-02-14T00:08:10.046Z,97.63
2023-02-14T00:10:56.118Z,96.35
2023-02-14T00:14:02.214Z,99.57
2023-02-14T00:16:47.941Z,98.93
2023-02-14T00:19:35.995Z,107.00
2023-02-14T00:22:22.094Z,116.05
2023-02-14T00:25:08.169Z,106.18
2023-02-14T00:27:55.704Z,112.35
2023-02-14T00:30:41.379Z,138.25
2023-02-14T00:33:27.400Z,141.25
2023-02-14T00:36:13.350Z,136.38
2023-02-14T00:38:59.366Z,127.30
2023-02-14T00:41:45.219Z,120.82
2023-02-14T00:44:31.499Z,112.15
2023-02-14T00:47:17.229Z,105.85
2023-02-14T00:50:05.177Z,111.03
2023-02-14T00:52:50.996Z,102.85
2023-02-14T00:55:37.796Z,108.80
2023-02-14T00:58:23.429Z,107.18
2023-02-14T01:01:09.620Z,120.50
2023-02-14T01:03:56.772Z,108.95
2023-02-14T01:06:42.739Z,109.97
2023-02-14T01:09:28.372Z,107.60
2023-02-14T01:12:15.125Z,108.80
2023-02-14T01:15:01.305Z,112.75
2023-02-14T01:17:46.969Z,119.45
2023-02-14T01:20:33.023Z,110.22
2023-02-14T01:23:19.034Z,105.65
2023-02-14T01:26:08.630Z,112.93
2023-02-14T01:28:55.104Z,108.20
2023-02-14T01:31:42.449Z,116.53
2023-02-14T01:34:28.134Z,164.77
2023-02-14T01:37:17.810Z,175.15
2023-02-14T01:40:05.644Z,178.07
2023-02-14T01:43:17.319Z,161.15
2023-02-14T01:46:03.986Z,132.68
2023-02-14T01:48:49.903Z,115.88
2023-02-14T01:51:44.000Z,105.30
2023-02-14T01:54:32.120Z,99.97
2023-02-14T01:57:19.541Z,98.05
2023-02-14T02:00:41.383Z,96.95
2023-02-14T02:04:29.475Z,63.17
2023-02-14T02:07:20.495Z,74.28
2023-02-14T02:10:07.705Z,96.13
2023-02-14T02:12:54.908Z,105.65
2023-02-14T02:16:22.736Z,113.00
2023-02-14T02:19:42.231Z,121.60
2023-02-14T02:23:09.614Z,115.45
2023-02-14T02:26:10.907Z,125.72
2023-02-14T02:29:34.141Z,125.53
2023-02-14T02:33:21.455Z,119.43
2023-02-14T02:36:55.989Z,115.68
2023-02-14T02:40:12.551Z,107.68
2023-02-14T02:44:05.854Z,104.80
2023-02-14T02:47:16.567Z,98.25
2023-02-14T02:50:29.854Z,83.15
2023-02-14T02:53:42.539Z,65.43
2023-02-14T03:00:20.645Z,58.22
2023-02-14T03:03:43.008Z,39.58
2023-02-14T03:06:30.871Z,38.15
2023-02-14T03:09:19.981Z,37.13
2023-02-14T03:12:44.779Z,35.45
2023-02-14T03:19:01.858Z,34.10
2023-02-14T03:21:53.274Z,33.88
2023-02-14T03:24:46.340Z,35.75
2023-02-14T03:27:35.916Z,37.63
2023-02-14T03:30:33.608Z,34.35
2023-02-14T03:34:18.570Z,35.28
2023-02-14T03:41:46.727Z,34.25
2023-02-14T03:45:00.354Z,30.73
2023-02-14T03:47:47.225Z,39.43
2023-02-14T03:50:38.980Z,33.40
2023-02-14T03:53:27.484Z,39.47
2023-02-14T03:56:35.112Z,69.70
2023-02-14T03:59:23.449Z,71.28
2023-02-14T04:02:11.898Z,67.07
2023-02-14T04:05:00.863Z,65.28
2023-02-14T04:07:49.609Z,63.05
2023-02-14T04:11:09.807Z,64.00
2023-02-14T04:13:55.562Z,61.53
2023-02-14T04:20:26.746Z,60.72
2023-02-14T04:23:12.827Z,58.92
2023-02-14T04:26:05.119Z,77.65
2023-02-14T04:28:52.342Z,79.30
2023-02-14T04:31:38.138Z,85.90
2023-02-14T04:34:36.494Z,95.93
2023-02-14T04:37:22.265Z,103.72
2023-02-14T04:40:48.654Z,98.57
2023-02-14T04:43:34.668Z,95.20
2023-02-14T04:46:20.341Z,100.93
2023-02-14T04:49:18.602Z,100.15
2023-02-14T04:52:05.305Z,113.88
2023-02-14T04:54:53.704Z,114.10
2023-02-14T04:58:13.899Z,110.70
2023-02-14T05:01:02.580Z,102.28
2023-02-14T05:03:48.716Z,123.45
2023-02-14T05:06:46.955Z,118.65
2023-02-14T05:09:32.558Z,133.05
2023-02-14T05:12:18.294Z,126.07
2023-02-14T05:15:04.460Z,104.65
2023-02-14T05:17:50.112Z,105.80
2023-02-14T05:20:35.928Z,108.97
2023-02-14T05:23:22.154Z,130.20
2023-02-14T05:26:07.947Z,122.82
2023-02-14T05:28:53.753Z,125.25
2023-02-14T05:32:28.658Z,112.28
2023-02-14T05:35:14.461Z,100.63
2023-02-14T05:38:00.377Z,105.13
2023-02-14T05:41:20.679Z,124.32
2023-02-14T05:44:06.608Z,112.70
2023-02-14T05:46:52.306Z,110.90
2023-02-14T05:49:48.510Z,117.43
2023-02-14T05:52:35.076Z,101.82
2023-02-14T05:55:20.923Z,108.05
2023-02-14T05:58:07.721Z,102.15
2023-02-14T06:00:53.735Z,98.13
2023-02-14T06:03:39.438Z,102.22
2023-02-14T06:06:25.119Z,117.15
2023-02-14T06:09:10.893Z,126.85
2023-02-14T06:11:56.668Z,116.38
2023-02-14T06:14:43.591Z,118.25
2023-02-14T06:17:29.526Z,122.30
2023-02-14T06:20:15.142Z,113.40
2023-02-14T06:23:03.059Z,167.90
2023-02-14T06:25:48.917Z,154.15
2023-02-14T06:28:35.796Z,178.85
2023-02-14T06:31:21.842Z,184.98
2023-02-14T06:34:08.977Z,163.65
2023-02-14T06:36:54.523Z,168.50
2023-02-14T06:39:40.275Z,163.68
2023-02-14T06:42:26.243Z,128.30
2023-02-14T06:45:12.365Z,120.32
2023-02-14T06:48:00.018Z,109.60
2023-02-14T06:50:47.231Z,108.05
2023-02-14T06:53:33.687Z,108.57
2023-02-14T06:56:19.584Z,98.70
2023-02-14T06:59:05.880Z,96.82
2023-02-14T07:01:51.815Z,105.35
2023-02-14T07:04:37.657Z,96.88
2023-02-14T07:07:23.558Z,116.38
2023-02-14T07:10:10.771Z,132.90
2023-02-14T07:12:56.800Z,123.82
2023-02-14T07:15:42.791Z,124.38
2023-02-14T07:18:28.813Z,159.98
2023-02-14T07:21:14.525Z,162.30
2023-02-14T07:24:01.314Z,171.50
2023-02-14T07:26:46.973Z,169.15
2023-02-14T07:29:32.956Z,163.15
2023-02-14T07:32:18.707Z,139.52
2023-02-14T07:35:07.691Z,190.48
2023-02-14T07:37:53.688Z,570.70
2023-02-14T07:40:39.393Z,184.02
2023-02-14T07:43:26.305Z,156.77
2023-02-14T07:46:12.543Z,154.63
2023-02-14T07:48:58.446Z,134.63
2023-02-14T07:51:45.173Z,128.95
2023-02-14T07:54:31.094Z,109.80
2023-02-14T07:57:16.991Z,533.03
2023-02-14T08:00:04.778Z,255.90
2023-02-14T08:02:57.953Z,120.38
2023-02-14T08:05:45.058Z,111.60
2023-02-14T08:08:32.265Z,151.82
2023-02-14T08:11:38.628Z,158.70
2023-02-14T08:14:24.543Z,147.13
2023-02-14T08:17:10.968Z,132.98
2023-02-14T08:19:57.880Z,141.70
2023-02-14T08:22:43.456Z,76.15
2023-02-14T08:25:34.315Z,70.82
2023-02-14T08:28:23.047Z,64.35
2023-02-14T08:31:09.095Z,47.33
2023-02-14T08:33:55.415Z,33.17
2023-02-14T08:36:41.888Z,25.05
2023-02-14T08:39:30.070Z,26.77
2023-02-14T08:42:15.737Z,30.92
2023-02-14T08:45:02.708Z,30.73
2023-02-14T08:47:48.308Z,132.95
2023-02-14T08:50:40.916Z,44.50
2023-02-14T08:53:26.706Z,38.30
2023-02-14T08:56:14.902Z,47.47
2023-02-14T08:59:00.542Z,26.33
2023-02-14T09:01:46.340Z,26.73
2023-02-14T09:04:35.217Z,25.02
2023-02-14T09:07:22.340Z,22.65
2023-02-14T09:10:08.748Z,21.45
2023-02-14T09:12:55.771Z,31.02
2023-02-14T09:15:45.635Z,21.45
2023-02-14T09:18:34.891Z,13.98
2023-02-14T09:21:24.005Z,17.73
2023-02-14T09:24:10.041Z,16.77
2023-02-14T09:26:57.884Z,29.67
2023-02-14T09:29:44.273Z,23.38
2023-02-14T09:32:30.163Z,24.83
2023-02-14T09:35:16.719Z,20.23
2023-02-14T09:38:18.778Z,23.58
2023-02-14T09:41:08.840Z,21.88
2023-02-14T09:43:55.083Z,23.42
2023-02-14T09:46:45.971Z,28.85
2023-02-14T09:49:33.755Z,21.80
2023-02-14T09:52:23.137Z,16.23
2023-02-14T09:55:15.897Z,18.77
2023-02-14T09:58:23.240Z,17.52
2023-02-14T10:01:15.286Z,23.25
2023-02-14T10:04:16.848Z,17.83
2023-02-14T10:07:18.428Z,28.75
2023-02-14T10:10:38.652Z,16.50
2023-02-14T10:13:31.951Z,22.65
2023-02-14T10:16:43.285Z,16.77
2023-02-14T10:19:36.340Z,25.42
2023-02-14T10:22:29.304Z,24.45
2023-02-14T10:25:23.157Z,30.50
2023-02-14T10:28:15.241Z,27.25
2023-02-14T10:31:25.850Z,34.38
2023-02-14T10:34:43.639Z,26.38
2023-02-14T10:37:48.361Z,24.55
2023-02-14T10:40:51.343Z,18.75
2023-02-14T10:43:47.508Z,21.25
2023-02-14T10:46:54.479Z,18.50
2023-02-14T10:50:12.712Z,17.38
2023-02-14T10:53:10.793Z,21.02
2023-02-14T10:56:21.404Z,28.20
2023-02-14T10:59:23.139Z,26.73
2023-02-14T11:02:13.984Z,28.35
2023-02-14T11:05:01.280Z,53.33
2023-02-14T11:07:48.283Z,45.58
2023-02-14T11:10:35.754Z,31.05
2023-02-14T11:13:41.204Z,36.30
2023-02-14T11:16:32.306Z,14.13
2023-02-14T11:19:26.882Z,23.48
2023-02-14T11:22:29.966Z,17.60
2023-02-14T11:25:18.775Z,19.65
2023-02-14T11:28:06.497Z,21.42
2023-02-14T11:30:52.427Z,26.02
2023-02-14T11:33:41.360Z,17.30
2023-02-14T11:36:27.501Z,14.73
2023-02-14T11:39:34.820Z,17.80
2023-02-14T11:42:42.971Z,20.02
2023-02-14T11:45:39.802Z,15.77
2023-02-14T11:48:37.614Z,13.13
2023-02-14T11:51:31.157Z,16.35
2023-02-14T11:54:48.549Z,17.92
2023-02-14T11:57:37.670Z,19.75
2023-02-14T12:00:26.817Z,12.80
2023-02-14T12:03:19.242Z,21.25
2023-02-14T12:06:05.206Z,18.92
2023-02-14T12:09:22.181Z,16.63
2023-02-14T12:12:17.863Z,13.60
2023-02-14T12:15:50.052Z,21.38
2023-02-14T12:18:46.278Z,10.70
2023-02-14T12:21:48.819Z,17.85
2023-02-14T12:24:38.573Z,14.40
2023-02-14T12:27:57.303Z,16.33
2023-02-14T12:30:45.218Z,14.93
2023-02-14T12:33:31.241Z,12.65
2023-02-14T12:36:28.985Z,18.67
2023-02-14T12:39:21.013Z,15.40
2023-02-14T12:43:16.282Z,17.02
2023-02-14T12:46:14.698Z,16.42
2023-02-14T12:49:22.653Z,13.85
2023-02-14T12:52:40.695Z,10.63
2023-02-14T12:55:41.174Z,12.80
2023-02-14T12:58:50.703Z,23.60
2023-02-14T13:02:05.342Z,15.18
2023-02-14T13:04:56.188Z,14.38
2023-02-14T13:07:52.983Z,26.20
2023-02-14T13:11:17.968Z,13.02
2023-02-14T13:18:55.700Z,15.77
2023-02-14T13:21:42.042Z,15.40
2023-02-14T13:24:30.715Z,11.77
2023-02-14T13:27:23.089Z,23.23
2023-02-14T13:30:21.988Z,18.60
2023-02-14T13:33:35.274Z,30.20
2023-02-14T13:36:21.346Z,12.00
2023-02-14T13:39:21.719Z,21.85
2023-02-14T13:42:07.903Z,34.55
2023-02-14T13:44:53.942Z,13.60
2023-02-14T13:47:39.686Z,12.15
2023-02-14T13:50:25.761Z,11.45
2023-02-14T13:53:12.768Z,15.50
2023-02-14T13:55:58.892Z,14.32
2023-02-14T13:59:04.580Z,15.88
2023-02-14T14:01:51.393Z,16.23
2023-02-14T14:04:54.596Z,10.40
2023-02-14T14:07:40.459Z,13.43
2023-02-14T14:11:01.486Z,22.75
2023-02-14T14:14:30.379Z,13.00
2023-02-14T14:17:21.288Z,15.02
2023-02-14T14:20:21.065Z,10.57
2023-02-14T14:23:31.487Z,19.63
2023-02-14T14:26:48.232Z,15.80
2023-02-14T14:29:59.571Z,11.02
2023-02-14T14:32:45.570Z,20.13
2023-02-14T14:35:31.448Z,23.25
2023-02-14T14:38:17.011Z,16.73
2023-02-14T14:41:03.001Z,9.10
2023-02-14T14:43:50.510Z,14.63
2023-02-14T14:46:37.137Z,19.85
2023-02-14T14:49:22.772Z,18.00
2023-02-14T14:52:35.483Z,27.65
2023-02-14T14:55:24.676Z,30.40
2023-02-14T14:58:40.176Z,30.58
2023-02-14T15:01:40.100Z,17.05
2023-02-14T15:04:30.612Z,11.43
2023-02-14T15:07:27.663Z,14.15
2023-02-14T15:10:29.347Z,15.15
2023-02-14T15:13:33.840Z,15.82
2023-02-14T15:16:47.474Z,14.25
2023-02-14T15:19:44.256Z,12.48
2023-02-14T15:22:35.755Z,16.95
2023-02-14T15:25:27.261Z,20.88
2023-02-14T15:28:30.527Z,23.60
2023-02-14T15:31:16.873Z,19.55
2023-02-14T15:34:04.831Z,28.98
2023-02-14T15:36:56.123Z,33.63
2023-02-14T15:39:44.126Z,16.80
2023-02-14T15:42:33.109Z,21.77
2023-02-14T15:45:27.829Z,31.50
2023-02-14T15:48:30.026Z,20.45
2023-02-14T15:51:32.892Z,19.60
2023-02-14T15:54:39.497Z,17.30
2023-02-14T15:57:27.188Z,17.52
2023-02-14T16:00:21.740Z,14.32
2023-02-14T16:03:12.951Z,28.38
2023-02-14T16:05:59.174Z,16.98
2023-02-14T16:08:55.071Z,19.05
2023-02-14T16:11:41.132Z,17.08
2023-02-14T16:14:31.363Z,26.42
2023-02-14T16:17:32.283Z,20.27
2023-02-14T16:20:43.544Z,17.77
2023-02-14T16:23:31.072Z,19.25
2023-02-14T16:26:17.144Z,30.33
2023-02-14T16:29:04.065Z,27.58
2023-02-14T16:32:15.110Z,23.33
2023-02-14T16:35:01.031Z,18.15
2023-02-14T16:37:47.634Z,24.98
2023-02-14T16:40:33.611Z,17.15
2023-02-14T16:43:20.248Z,18.85
2023-02-14T16:46:11.457Z,20.33
2023-02-14T16:48:57.461Z,19.13
2023-02-14T16:51:45.772Z,29.83
2023-02-14T16:54:32.414Z,15.70
2023-02-14T16:57:27.666Z,14.20
2023-02-14T17:00:14.492Z,21.48
2023-02-14T17:03:06.397Z,16.42
2023-02-14T17:05:53.369Z,22.23
2023-02-14T17:08:41.029Z,15.48
2023-02-14T17:11:28.771Z,17.27
2023-02-14T17:14:18.754Z,15.27
2023-02-14T17:17:06.579Z,16.65
2023-02-14T17:19:52.918Z,16.85
2023-02-14T17:22:42.461Z,14.07
2023-02-14T17:25:28.473Z,19.08
2023-02-14T17:28:14.089Z,16.83
2023-02-14T17:31:00.933Z,17.02
2023-02-14T17:33:48.609Z,22.80
2023-02-14T17:36:34.495Z,22.60
2023-02-14T17:39:20.601Z,22.17
2023-02-14T17:42:06.275Z,19.15
2023-02-14T17:44:53.172Z,18.77
2023-02-14T17:47:40.986Z,20.48
2023-02-14T17:50:26.728Z,25.25
2023-02-14T17:53:12.598Z,32.97
2023-02-14T17:55:58.316Z,16.25
2023-02-14T17:58:44.301Z,20.30
2023-02-14T18:01:34.843Z,51.00
2023-02-14T18:04:21.364Z,37.83
2023-02-14T18:07:07.838Z,26.95
2023-02-14T18:09:53.978Z,18.38
2023-02-14T18:12:40.095Z,21.92
2023-02-14T18:15:27.576Z,21.52
2023-02-14T18:18:13.934Z,16.00
2023-02-14T18:21:02.555Z,16.42
2023-02-14T18:23:49.566Z,15.50
2023-02-14T18:26:38.916Z,22.83
2023-02-14T18:29:25.243Z,19.92
2023-02-14T18:32:11.557Z,22.85
2023-02-14T18:34:57.828Z,18.90
2023-02-14T18:37:47.513Z,17.08
2023-02-14T18:40:33.237Z,20.98
2023-02-14T18:43:21.186Z,31.70
2023-02-14T18:46:14.196Z,20.48
2023-02-14T18:49:02.068Z,25.08
2023-02-14T18:51:49.060Z,26.23
2023-02-14T18:54:35.140Z,20.60
2023-02-14T18:57:21.136Z,29.75
2023-02-14T19:00:12.062Z,24.95
2023-02-14T19:02:58.836Z,23.15
2023-02-14T19:05:45.896Z,22.73
2023-02-14T19:08:32.956Z,28.25
2023-02-14T19:11:27.554Z,18.40
2023-02-14T19:14:13.719Z,23.85
2023-02-14T19:16:59.644Z,24.88
2023-02-14T19:19:48.401Z,21.02
2023-02-14T19:22:41.507Z,23.38
2023-02-14T19:25:30.974Z,17.83
2023-02-14T19:28:16.950Z,22.80
2023-02-14T19:31:02.942Z,23.88
2023-02-14T19:33:49.057Z,25.20
2023-02-14T19:36:37.644Z,16.92
2023-02-14T19:39:25.949Z,20.48
2023-02-14T19:42:11.947Z,19.52
2023-02-14T19:44:57.595Z,20.75
2023-02-14T19:47:47.638Z,27.40
2023-02-14T19:50:33.875Z,27.10
2023-02-14T19:53:19.772Z,25.38
2023-02-14T19:56:06.415Z,24.65
2023-02-14T19:58:56.165Z,22.45
2023-02-14T20:01:46.530Z,26.10
2023-02-14T20:04:32.606Z,27.52
2023-02-14T20:07:18.610Z,24.75
2023-02-14T20:10:06.003Z,27.58
2023-02-14T20:12:52.260Z,21.50
2023-02-14T20:15:38.364Z,20.85
2023-02-14T20:18:24.481Z,23.13
2023-02-14T20:21:17.933Z,25.10
2023-02-14T20:26:50.925Z,19.40
2023-02-14T20:29:39.080Z,17.92
2023-02-14T20:32:27.978Z,18.38
2023-02-14T20:35:13.880Z,21.52
2023-02-14T20:38:00.832Z,30.63
2023-02-14T20:40:48.278Z,20.65
2023-02-14T20:43:35.250Z,19.80
2023-02-14T20:46:22.347Z,18.23
2023-02-14T20:49:11.225Z,21.90
2023-02-14T20:51:58.291Z,31.45
2023-02-14T20:54:45.250Z,20.30
2023-02-14T20:57:31.359Z,21.23
2023-02-14T21:00:17.679Z,22.73
2023-02-14T21:03:04.010Z,17.60
2023-02-14T21:05:50.261Z,18.52
2023-02-14T21:08:36.528Z,22.10
2023-02-14T21:11:24.326Z,19.30
2023-02-14T21:14:12.630Z,15.65
2023-02-14T21:16:58.684Z,20.27
2023-02-14T21:19:44.398Z,19.42
2023-02-14T21:22:31.161Z,19.00
2023-02-14T21:25:17.116Z,21.10
2023-02-14T21:28:03.210Z,20.02
2023-02-14T21:30:54.469Z,20.20
2023-02-14T21:33:42.087Z,21.10
2023-02-14T21:36:29.668Z,20.02
2023-02-14T21:39:23.019Z,18.38
2023-02-14T21:42:11.681Z,16.50
2023-02-14T21:45:15.887Z,17.27
2023-02-14T21:48:21.463Z,24.00
2023-02-14T21:51:07.928Z,23.90
2023-02-14T21:53:59.917Z,22.38
2023-02-14T21:56:46.150Z,20.00
2023-02-14T22:00:05.874Z,25.05
2023-02-14T22:05:45.726Z,17.90
2023-02-14T22:08:32.008Z,17.92
2023-02-14T22:11:23.178Z,17.63
2023-02-14T22:14:08.999Z,26.95
2023-02-14T22:16:56.548Z,23.67
2023-02-14T22:19:42.496Z,23.65
2023-02-14T22:22:28.173Z,19.60
2023-02-14T22:25:15.242Z,25.17
2023-02-14T22:28:01.289Z,24.00
2023-02-14T22:30:47.519Z,35.03
2023-02-14T22:33:33.184Z,40.35
2023-02-14T22:36:20.377Z,22.95
2023-02-14T22:39:06.830Z,24.25
2023-02-14T22:41:52.811Z,23.05
2023-02-14T22:44:38.439Z,30.00
2023-02-14T22:47:24.455Z,26.08
2023-02-14T22:50:10.599Z,29.15
2023-02-14T22:53:04.825Z,27.38
2023-02-14T22:58:36.213Z,42.65
2023-02-14T23:01:22.534Z,27.65
2023-02-14T23:04:08.760Z,19.77
2023-02-14T23:06:55.053Z,18.17
2023-02-14T23:09:40.620Z,22.05
2023-02-14T23:12:44.782Z,22.55
2023-02-14T23:15:51.598Z,19.30
2023-02-14T23:18:56.056Z,20.52
2023-02-14T23:21:57.997Z,19.65
2023-02-14T23:24:45.477Z,25.00
2023-02-14T23:27:38.478Z,20.63
2023-02-14T23:30:24.211Z,29.10
2023-02-14T23:33:15.898Z,36.55
2023-02-14T23:36:04.959Z,22.85
2023-02-14T23:38:52.931Z,25.48
2023-02-14T23:42:03.479Z,25.95
2023-02-14T23:44:49.557Z,23.25
2023-02-14T23:47:35.344Z,26.70
2023-02-14T23:50:23.987Z,28.35
2023-02-14T23:53:09.854Z,21.75
2023-02-14T23:56:02.290Z,17.88
2023-02-14T23:58:48.378Z,25.40
